Time;durP1;ratioP1;P1;durP2;ratioP2;P2;SDS_P1;SDS_P2;PMS_P1;PMS_P2;Temp;Humidity;BMP_temperature;BMP_pressure;BME280_temperature;BME280_humidity;BME280_pressure;Samples;Min_cycle;Max_cycle;Signal;HPM_P1;HPM_P2
2022/07/27 00:01:02;;;;;;;3.83;1.70;;;;;;;19.71;48.16;101932.25;5103510;28;20067;-58
2022/07/27 00:03:30;;;;;;;5.53;2.35;;;;;;;19.70;48.20;101935.25;5101248;28;20064;-59
2022/07/27 00:05:58;;;;;;;6.63;2.28;;;;;;;19.69;48.39;101939.03;5103168;28;20512;-59
2022/07/27 00:08:26;;;;;;;4.03;1.40;;;;;;;19.67;48.28;101936.56;5104094;28;20040;-59
2022/07/27 00:10:56;;;;;;;3.28;1.42;;;;;;;19.66;48.33;101934.09;5099005;28;20044;-59
2022/07/27 00:13:23;;;;;;;3.75;1.48;;;;;;;19.57;48.45;101922.81;5100684;28;20469;-59
2022/07/27 00:15:52;;;;;;;2.70;1.13;;;;;;;19.63;48.48;101924.53;5109186;28;20477;-59
2022/07/27 00:18:19;;;;;;;2.28;1.30;;;;;;;19.62;48.40;101931.06;5103094;28;20481;-59
2022/07/27 00:20:47;;;;;;;4.38;1.65;;;;;;;19.60;48.33;101926.94;5095251;28;20048;-59
2022/07/27 00:23:15;;;;;;;2.33;1.40;;;;;;;19.60;48.42;101929.66;5096708;28;20052;-59
2022/07/27 00:25:43;;;;;;;3.75;1.40;;;;;;;19.57;48.50;101928.28;5089480;28;20078;-59
2022/07/27 00:28:12;;;;;;;7.15;1.77;;;;;;;19.56;48.43;101929.34;5088718;28;20183;-59
2022/07/27 00:30:40;;;;;;;2.70;1.33;;;;;;;19.55;48.50;101926.88;5093880;28;20474;-59
2022/07/27 00:33:07;;;;;;;2.95;1.33;;;;;;;19.53;48.61;101918.97;5092834;28;20046;-59
2022/07/27 00:35:35;;;;;;;4.40;1.48;;;;;;;19.53;48.42;101926.31;5087097;28;20521;-59
2022/07/27 00:38:03;;;;;;;4.65;1.73;;;;;;;19.52;48.59;101927.41;5096967;28;20051;-58
2022/07/27 00:40:31;;;;;;;2.97;1.23;;;;;;;19.50;48.64;101924.91;5087392;28;20071;-58
2022/07/27 00:42:59;;;;;;;4.13;1.40;;;;;;;19.49;48.63;101925.97;5089600;28;20084;-59
2022/07/27 00:45:28;;;;;;;4.85;1.98;;;;;;;19.48;48.61;101925.16;5093887;28;20127;-58
2022/07/27 00:47:56;;;;;;;4.07;1.80;;;;;;;19.46;48.68;101927.31;5095649;28;20048;-58
2022/07/27 00:50:24;;;;;;;4.47;1.23;;;;;;;19.45;48.71;101927.56;5095454;28;20082;-59
2022/07/27 00:52:51;;;;;;;4.18;1.40;;;;;;;19.42;48.68;101931.63;5092722;28;20078;-58
2022/07/27 00:55:19;;;;;;;3.08;1.35;;;;;;;19.41;48.90;101931.88;5099676;28;20045;-59
2022/07/27 00:57:47;;;;;;;3.88;1.33;;;;;;;19.40;48.67;101924.78;5084816;28;20072;-59
2022/07/27 01:00:25;;;;;;;3.72;1.83;;;;;;;19.36;48.83;101927.19;5101735;28;20105;-59
2022/07/27 01:02:55;;;;;;;3.47;1.67;;;;;;;19.37;48.95;101928.00;5102102;28;20069;-59
2022/07/27 01:05:24;;;;;;;3.53;1.40;;;;;;;19.34;49.16;101939.41;5103007;28;20059;-60
2022/07/27 01:08:03;;;;;;;2.35;1.45;;;;;;;19.34;49.26;101928.53;5095684;28;20050;-59
2022/07/27 01:10:31;;;;;;;4.15;1.65;;;;;;;19.32;48.98;101925.22;5097599;28;20059;-61
2022/07/27 01:12:59;;;;;;;7.80;2.22;;;;;;;19.31;48.96;101920.84;5096194;28;20048;-60
2022/07/27 01:15:27;;;;;;;3.67;1.50;;;;;;;19.29;49.11;101917.56;5086065;28;20051;-59
2022/07/27 01:17:56;;;;;;;5.07;2.22;;;;;;;19.28;49.00;101921.34;5086651;28;20498;-60
2022/07/27 01:20:24;;;;;;;2.90;1.45;;;;;;;19.28;49.33;101915.91;5100124;28;20098;-60
2022/07/27 01:22:53;;;;;;;4.38;1.60;;;;;;;19.26;49.14;101915.34;5095480;28;20488;-60
2022/07/27 01:25:21;;;;;;;4.88;1.80;;;;;;;19.24;49.16;101925.66;5099946;28;20092;-60
2022/07/27 01:27:48;;;;;;;4.75;1.95;;;;;;;19.23;49.36;101927.56;5099754;28;20067;-60
2022/07/27 01:30:29;;;;;;;7.90;2.00;;;;;;;19.21;49.25;101921.53;5095403;28;20048;-60
2022/07/27 01:33:01;;;;;;;6.43;1.55;;;;;;;19.21;49.37;101920.72;5092992;28;20104;-60
2022/07/27 01:35:29;;;;;;;7.30;1.77;;;;;;;19.20;49.45;101928.06;5100774;28;20071;-60
2022/07/27 01:37:58;;;;;;;3.83;1.70;;;;;;;19.19;49.41;101920.97;5099786;28;20052;-60
2022/07/27 01:40:26;;;;;;;5.72;1.70;;;;;;;19.07;49.28;101898.47;5105520;28;20066;-60
2022/07/27 01:42:54;;;;;;;7.13;1.60;;;;;;;19.14;49.50;101921.72;5101727;28;20075;-61
2022/07/27 01:45:22;;;;;;;2.95;1.83;;;;;;;19.17;49.48;101921.22;5097864;28;20048;-60
2022/07/27 01:47:50;;;;;;;4.63;1.88;;;;;;;19.15;49.31;101920.66;5103720;28;20082;-60
2022/07/27 01:50:18;;;;;;;2.35;1.60;;;;;;;19.14;49.55;101916.28;5104561;28;20067;-60
2022/07/27 01:52:46;;;;;;;9.23;2.47;;;;;;;19.14;49.55;101921.72;5104341;28;20469;-60
2022/07/27 01:55:15;;;;;;;8.73;1.77;;;;;;;19.13;49.29;101916.53;5112924;28;20044;-60
2022/07/27 01:57:43;;;;;;;5.63;2.08;;;;;;;19.12;49.41;101920.34;5104702;28;20084;-60
2022/07/27 02:00:12;;;;;;;4.72;1.77;;;;;;;19.11;49.48;101922.22;5105415;28;20048;-60
2022/07/27 02:02:40;;;;;;;5.30;2.60;;;;;;;19.09;49.53;101920.84;5096801;28;20567;-59
2022/07/27 02:05:10;;;;;;;4.35;1.73;;;;;;;19.08;49.42;101917.28;5110088;28;20039;-60
2022/07/27 02:07:39;;;;;;;4.97;1.60;;;;;;;19.08;49.65;101919.19;5101295;28;20451;-60
2022/07/27 02:10:09;;;;;;;3.75;1.58;;;;;;;19.06;49.55;101915.94;5103008;28;20056;-60
2022/07/27 02:12:37;;;;;;;9.00;2.40;;;;;;;18.99;49.42;101913.38;5110772;28;20057;-60
2022/07/27 02:15:07;;;;;;;4.13;2.08;;;;;;;19.03;49.70;101916.44;5099097;28;20049;-60
2022/07/27 02:17:42;;;;;;;;;;;;;;;19.02;49.64;101909.34;5101078;28;20149;-59
2022/07/27 02:20:11;;;;;;;3.75;1.88;;;;;;;19.00;49.45;101906.84;5092441;28;20388;-58
2022/07/27 02:22:39;;;;;;;4.03;1.60;;;;;;;18.99;49.78;101912.56;5109719;28;20136;-59
2022/07/27 02:25:09;;;;;;;2.17;1.40;;;;;;;18.98;49.82;101908.19;5098135;28;20055;-59
2022/07/27 02:27:38;;;;;;;5.60;1.90;;;;;;;18.97;49.54;101914.72;5108402;28;20055;-58
2022/07/27 02:30:09;;;;;;;3.38;1.90;;;;;;;18.95;49.74;101904.06;5104119;28;20401;-58
2022/07/27 02:32:37;;;;;;;4.05;2.05;;;;;;;18.95;49.54;101901.34;5099846;28;20060;-59
2022/07/27 02:35:05;;;;;;;6.60;2.20;;;;;;;18.92;49.70;101890.94;5106969;28;20123;-58
2022/07/27 02:37:45;;;;;;;3.78;1.70;;;;;;;18.90;49.68;101900.44;5097448;28;20044;-59
2022/07/27 02:40:15;;;;;;;4.05;2.22;;;;;;;18.89;49.52;101899.63;5102397;28;20059;-58
2022/07/27 02:42:45;;;;;;;4.32;2.00;;;;;;;18.88;49.77;101903.41;5110352;28;20062;-59
2022/07/27 02:45:13;;;;;;;4.45;1.58;;;;;;;18.88;49.84;101903.41;5102405;28;20056;-59
2022/07/27 02:47:41;;;;;;;2.75;1.80;;;;;;;18.85;49.89;101895.75;5101681;28;20127;-58
2022/07/27 02:50:09;;;;;;;4.43;1.90;;;;;;;18.84;49.96;101894.94;5104802;28;20044;-59
2022/07/27 02:52:37;;;;;;;6.28;1.70;;;;;;;18.82;49.88;101899.81;5107836;28;20044;-58
2022/07/27 02:55:06;;;;;;;4.00;1.92;;;;;;;18.82;49.71;101902.53;5095291;28;20044;-59
2022/07/27 02:57:36;;;;;;;4.75;2.17;;;;;;;18.79;49.94;101903.03;5096156;28;20056;-58
2022/07/27 03:00:07;;;;;;;3.65;1.90;;;;;;;18.79;49.96;101900.31;5101878;28;20059;-60
2022/07/27 03:02:35;;;;;;;3.00;1.67;;;;;;;18.77;49.99;101899.72;5093683;28;20102;-59
2022/07/27 03:05:04;;;;;;;5.18;1.95;;;;;;;18.75;49.73;101899.16;5102462;28;20121;-58
2022/07/27 03:07:32;;;;;;;4.30;1.77;;;;;;;18.74;50.05;101899.41;5101156;28;20047;-59
2022/07/27 03:10:00;;;;;;;4.30;2.05;;;;;;;18.72;50.11;101901.56;5097022;28;20051;-59
2022/07/27 03:12:28;;;;;;;4.55;1.80;;;;;;;18.70;50.00;101901.81;5100814;28;20040;-59
2022/07/27 03:14:57;;;;;;;8.60;2.35;;;;;;;18.69;50.04;101908.31;5095121;28;20055;-60
2022/07/27 03:17:26;;;;;;;3.45;1.70;;;;;;;18.68;50.06;101909.41;5104293;28;20048;-59
2022/07/27 03:19:53;;;;;;;3.33;1.80;;;;;;;18.67;49.95;101909.66;5106753;28;20524;-59
2022/07/27 03:22:21;;;;;;;10.05;2.22;;;;;;;18.66;50.03;101913.44;5098737;28;20076;-59
2022/07/27 03:24:49;;;;;;;4.57;1.88;;;;;;;18.65;50.16;101907.19;5104317;28;20048;-59
2022/07/27 03:27:17;;;;;;;5.18;2.47;;;;;;;18.63;49.97;101906.59;5103614;28;20048;-59
2022/07/27 03:29:45;;;;;;;3.58;2.22;;;;;;;18.61;50.05;101911.47;5095739;28;20587;-59
2022/07/27 03:32:12;;;;;;;3.75;1.65;;;;;;;18.58;49.96;101908.41;5098109;28;20628;-59
2022/07/27 03:34:42;;;;;;;4.65;1.88;;;;;;;18.59;50.22;101910.88;5106014;28;20063;-59
2022/07/27 03:37:09;;;;;;;5.10;2.25;;;;;;;18.59;50.12;101915.50;5103091;28;20051;-59
2022/07/27 03:39:37;;;;;;;6.60;1.90;;;;;;;18.58;50.02;101900.22;5100568;28;20048;-58
2022/07/27 03:42:06;;;;;;;5.55;1.70;;;;;;;18.57;50.17;101902.13;5098697;28;20051;-59
2022/07/27 03:44:33;;;;;;;3.67;1.75;;;;;;;18.54;50.31;101900.72;5091822;28;20055;-58
2022/07/27 03:47:01;;;;;;;2.38;1.65;;;;;;;18.53;50.08;101903.69;5100629;28;20080;-58
2022/07/27 03:49:29;;;;;;;8.77;2.50;;;;;;;18.53;50.21;101914.59;5102987;28;20070;-58
2022/07/27 03:51:58;;;;;;;5.53;1.83;;;;;;;18.51;50.50;101906.66;5103474;28;20059;-57
2022/07/27 03:54:26;;;;;;;5.72;2.20;;;;;;;18.40;50.59;101902.13;5100188;28;20048;-59
2022/07/27 03:56:54;;;;;;;2.45;1.52;;;;;;;18.50;50.34;101913.19;5097909;28;20075;-58
2022/07/27 03:59:22;;;;;;;2.97;1.90;;;;;;;18.50;50.37;101920.53;5103859;28;20048;-58
2022/07/27 04:01:49;;;;;;;5.53;1.85;;;;;;;18.48;50.31;101918.06;5103710;28;20048;-58
2022/07/27 04:04:17;;;;;;;3.92;1.80;;;;;;;18.48;50.38;101914.50;5096061;28;20056;-58
2022/07/27 04:06:45;;;;;;;5.25;2.10;;;;;;;18.47;50.46;101924.56;5105091;28;20081;-58
2022/07/27 04:09:15;;;;;;;5.78;1.70;;;;;;;18.46;50.38;101920.19;5101657;28;20063;-58
2022/07/27 04:11:46;;;;;;;8.25;2.20;;;;;;;18.46;50.45;101922.09;5095312;28;20071;-58
2022/07/27 04:14:18;;;;;;;4.88;1.77;;;;;;;18.43;50.37;101917.97;5094253;28;20063;-58
2022/07/27 04:16:46;;;;;;;3.90;1.80;;;;;;;18.31;50.39;101891.91;5109029;28;20048;-59
2022/07/27 04:19:14;;;;;;;3.78;1.67;;;;;;;18.43;50.31;101909.81;5092857;28;20324;-58
2022/07/27 04:21:43;;;;;;;3.50;2.05;;;;;;;18.40;50.49;101914.94;5103549;28;20142;-58
2022/07/27 04:24:10;;;;;;;5.82;2.10;;;;;;;18.38;50.54;101912.44;5098988;28;20040;-59
2022/07/27 04:26:40;;;;;;;4.63;1.85;;;;;;;18.37;50.51;101918.97;5105278;28;20097;-59
2022/07/27 04:29:08;;;;;;;3.65;1.52;;;;;;;18.36;50.63;101916.50;5104763;28;20052;-58
2022/07/27 04:31:36;;;;;;;5.55;1.95;;;;;;;18.35;50.69;101909.41;5099695;28;20052;-58
2022/07/27 04:34:04;;;;;;;5.03;1.70;;;;;;;18.34;50.69;101915.91;5116170;28;20051;-59
2022/07/27 04:36:32;;;;;;;7.00;2.30;;;;;;;18.33;50.83;101916.97;5095450;28;20040;-59
2022/07/27 04:38:59;;;;;;;4.20;2.10;;;;;;;18.32;50.87;101918.88;5085770;28;20086;-58
2022/07/27 04:41:27;;;;;;;3.75;1.60;;;;;;;18.15;50.93;101891.66;5090712;28;20055;-59
2022/07/27 04:43:58;;;;;;;4.57;1.75;;;;;;;18.30;50.89;101914.75;5087750;28;20080;-63
2022/07/27 04:46:28;;;;;;;4.15;2.15;;;;;;;18.13;50.83;101893.81;5090903;28;20052;-59
2022/07/27 04:48:56;;;;;;;5.97;2.05;;;;;;;18.27;50.97;101918.78;5090336;28;20040;-60
2022/07/27 04:51:24;;;;;;;4.93;2.30;;;;;;;18.24;50.98;101918.47;5094263;28;20054;-59
2022/07/27 04:53:52;;;;;;;7.28;2.13;;;;;;;18.27;51.09;101926.97;5100425;28;20201;-59
2022/07/27 04:56:25;;;;;;;7.20;2.35;;;;;;;18.26;50.87;101928.03;5094283;28;20048;-59
2022/07/27 04:58:53;;;;;;;8.93;2.50;;;;;;;18.25;50.88;101936.44;5099289;28;20059;-59
2022/07/27 05:01:24;;;;;;;3.85;2.03;;;;;;;18.23;51.18;101933.97;5098083;28;20082;-59
2022/07/27 05:03:52;;;;;;;4.97;1.92;;;;;;;18.23;51.20;101939.41;5095759;28;20060;-59
2022/07/27 05:06:20;;;;;;;4.97;2.20;;;;;;;18.20;51.09;101932.56;5103077;28;20055;-58
2022/07/27 05:08:48;;;;;;;5.32;2.20;;;;;;;18.22;50.99;101943.22;5105264;28;20045;-58
2022/07/27 05:11:16;;;;;;;5.25;2.10;;;;;;;18.21;51.31;101938.84;5099791;28;20044;-58
2022/07/27 05:13:44;;;;;;;6.00;1.92;;;;;;;18.20;51.18;101942.63;5094816;28;20047;-58
2022/07/27 05:16:12;;;;;;;5.47;2.22;;;;;;;18.19;51.45;101943.69;5105212;28;20056;-58
2022/07/27 05:18:41;;;;;;;7.07;2.20;;;;;;;18.19;51.30;101943.69;4746539;28;10000149;-59
2022/07/27 05:21:09;;;;;;;4.38;2.20;;;;;;;18.18;51.43;101951.03;5093197;28;20139;-58
2022/07/27 05:23:37;;;;;;;3.33;1.90;;;;;;;18.18;51.39;101951.03;5096780;28;20083;-59
2022/07/27 05:26:05;;;;;;;3.85;2.13;;;;;;;18.18;51.13;101953.75;5096967;28;20073;-58
2022/07/27 05:28:33;;;;;;;4.45;2.35;;;;;;;18.17;51.25;101957.53;5093827;28;20056;-58
2022/07/27 05:31:01;;;;;;;6.07;1.92;;;;;;;18.16;51.28;101953.19;5089549;28;20048;-58
2022/07/27 05:33:29;;;;;;;5.57;1.98;;;;;;;18.15;51.35;101951.53;5098910;28;20063;-60
2022/07/27 05:35:58;;;;;;;5.57;2.88;;;;;;;18.16;51.44;101947.72;5107020;28;20082;-59
2022/07/27 05:38:26;;;;;;;4.82;2.17;;;;;;;18.18;51.43;101953.75;5114593;28;20056;-59
2022/07/27 05:40:54;;;;;;;5.35;1.85;;;;;;;18.19;51.51;101951.84;5112614;28;20059;-58
2022/07/27 05:43:22;;;;;;;6.68;2.53;;;;;;;18.19;51.40;101960.03;5106617;28;20051;-59
2022/07/27 05:45:50;;;;;;;4.65;2.17;;;;;;;18.19;51.67;101960.84;5112039;28;20056;-58
2022/07/27 05:48:18;;;;;;;4.07;2.05;;;;;;;18.19;51.68;101962.75;5107264;28;20054;-59
2022/07/27 05:50:45;;;;;;;3.88;1.70;;;;;;;18.09;51.61;101946.25;5108122;28;20082;-59
2022/07/27 05:53:15;;;;;;;3.67;1.90;;;;;;;18.06;51.78;101938.56;5115625;28;20079;-59
2022/07/27 05:55:43;;;;;;;3.63;2.30;;;;;;;18.26;51.82;101973.47;5106454;28;20071;-58
2022/07/27 05:58:26;;;;;;;4.88;2.15;;;;;;;18.28;51.80;101965.88;5108590;28;20055;-59
2022/07/27 06:00:55;;;;;;;3.28;2.05;;;;;;;18.30;51.76;101967.28;5114598;28;20097;-60
2022/07/27 06:03:23;;;;;;;5.35;2.13;;;;;;;18.12;51.61;101940.31;5107083;28;20056;-59
2022/07/27 06:05:51;;;;;;;5.85;2.17;;;;;;;18.23;51.69;101955.75;5107227;28;20062;-59
2022/07/27 06:08:19;;;;;;;6.38;2.60;;;;;;;18.32;51.67;101977.94;5108159;28;20047;-58
2022/07/27 06:10:47;;;;;;;4.28;1.67;;;;;;;18.31;51.58;101968.94;5109655;28;20043;-58
2022/07/27 06:13:15;;;;;;;4.55;1.80;;;;;;;18.32;51.82;101975.22;5110079;28;20069;-58
2022/07/27 06:15:43;;;;;;;4.90;1.90;;;;;;;18.32;51.75;101976.03;5103289;28;20080;-58
2022/07/27 06:18:16;;;;;;;8.85;2.33;;;;;;;18.34;51.92;101976.63;5101549;28;20052;-59
2022/07/27 06:20:46;;;;;;;5.85;1.77;;;;;;;18.36;51.71;101979.09;5105478;28;20055;-58
2022/07/27 06:23:13;;;;;;;3.10;1.58;;;;;;;18.38;51.70;101983.22;5113206;28;20350;-60
2022/07/27 06:25:43;;;;;;;7.63;1.67;;;;;;;18.40;52.01;101980.25;5091465;28;20943;-59
2022/07/27 06:28:11;;;;;;;3.75;1.80;;;;;;;18.44;51.75;101984.13;5103028;28;20040;-59
2022/07/27 06:30:41;;;;;;;2.65;1.50;;;;;;;18.47;51.94;101981.75;5104601;28;20052;-59
2022/07/27 06:33:09;;;;;;;6.40;1.80;;;;;;;18.35;51.74;101958.38;5098694;28;20059;-59
2022/07/27 06:35:37;;;;;;;4.90;1.50;;;;;;;18.52;51.67;101973.66;5091676;28;20059;-59
2022/07/27 06:38:05;;;;;;;3.70;1.50;;;;;;;18.53;51.56;101978.03;5102939;28;20048;-59
2022/07/27 06:40:34;;;;;;;3.83;1.75;;;;;;;18.56;51.50;101973.16;5097874;28;20256;-58
2022/07/27 06:43:03;;;;;;;4.95;1.52;;;;;;;18.43;51.53;101953.34;5097364;28;20072;-59
2022/07/27 06:45:31;;;;;;;3.53;1.65;;;;;;;18.58;51.58;101980.00;5098658;28;20055;-60
2022/07/27 06:47:59;;;;;;;4.20;1.55;;;;;;;18.59;51.34;101976.22;5105348;28;20050;-60
2022/07/27 06:50:27;;;;;;;5.18;1.77;;;;;;;18.61;51.54;101987.72;5093064;28;20056;-59
2022/07/27 06:52:55;;;;;;;3.42;1.67;;;;;;;18.64;51.07;101983.66;5093502;28;20055;-59
2022/07/27 06:55:22;;;;;;;6.85;1.80;;;;;;;18.65;51.38;101975.25;5104490;28;20066;-60
2022/07/27 06:57:50;;;;;;;3.60;1.38;;;;;;;18.67;51.16;101984.00;5104395;28;20066;-59
2022/07/27 07:00:19;;;;;;;4.38;1.40;;;;;;;18.69;51.02;101984.59;5101946;28;20044;-59
2022/07/27 07:02:56;;;;;;;5.47;1.30;;;;;;;18.72;50.75;101988.69;5102341;28;20071;-59
2022/07/27 07:05:24;;;;;;;4.60;1.52;;;;;;;18.74;50.66;101992.00;5103032;28;20044;-59
2022/07/27 07:07:53;;;;;;;5.00;1.35;;;;;;;18.73;50.84;101985.72;5102026;28;20056;-59
2022/07/27 07:10:21;;;;;;;2.45;1.10;;;;;;;18.74;50.66;101986.56;5094885;28;20041;-59
2022/07/27 07:12:54;;;;;;;2.97;1.00;;;;;;;18.76;50.67;101992.59;5105223;28;20063;-59
2022/07/27 07:15:25;;;;;;;2.38;1.42;;;;;;;18.78;50.53;101995.88;5106297;28;20040;-58
2022/07/27 07:17:53;;;;;;;5.00;1.52;;;;;;;18.80;50.43;101997.28;5096702;28;20131;-59
2022/07/27 07:20:21;;;;;;;4.60;1.42;;;;;;;18.81;50.28;101989.94;5092860;28;20059;-59
2022/07/27 07:22:49;;;;;;;2.67;0.88;;;;;;;18.81;50.34;101993.50;5094587;28;20113;-59
2022/07/27 07:25:17;;;;;;;2.45;0.90;;;;;;;18.84;50.36;101989.44;5103178;28;20044;-59
2022/07/27 07:27:45;;;;;;;2.85;1.00;;;;;;;18.83;50.20;101996.78;5093151;28;20155;-59
2022/07/27 07:30:14;;;;;;;3.60;1.15;;;;;;;18.75;49.93;101978.13;5104264;28;20080;-59
2022/07/27 07:32:43;;;;;;;3.28;1.45;;;;;;;18.87;50.00;102004.47;5116763;28;20047;-59
2022/07/27 07:35:11;;;;;;;3.88;1.42;;;;;;;18.88;50.11;102012.38;5104749;28;20406;-59
2022/07/27 07:37:39;;;;;;;3.47;1.08;;;;;;;18.75;50.05;101983.59;5102857;28;20477;-59
2022/07/27 07:40:09;;;;;;;2.63;1.33;;;;;;;18.89;50.00;101999.59;5102226;28;20075;-59
2022/07/27 07:42:59;;;;;;;2.10;0.90;;;;;;;18.89;50.00;101999.59;5093698;28;20060;-59
2022/07/27 07:45:29;;;;;;;4.05;0.80;;;;;;;18.87;49.97;101999.84;5102421;28;20048;-59
2022/07/27 07:47:58;;;;;;;2.80;1.10;;;;;;;18.88;50.07;102008.84;5096569;28;20049;-59
2022/07/27 07:50:26;;;;;;;3.50;1.35;;;;;;;18.83;50.12;101999.50;5099354;28;20048;-59
2022/07/27 07:52:54;;;;;;;3.85;1.00;;;;;;;18.85;50.09;102002.81;5104040;28;20071;-59
2022/07/27 07:55:24;;;;;;;5.05;1.45;;;;;;;18.74;50.08;101986.56;5104046;28;20132;-58
2022/07/27 07:57:53;;;;;;;3.28;0.90;;;;;;;18.87;50.06;102005.28;5099618;28;20047;-59
2022/07/27 08:00:21;;;;;;;4.22;1.33;;;;;;;18.89;49.90;102002.31;5103746;28;20068;-59
2022/07/27 08:02:52;;;;;;;3.75;0.90;;;;;;;18.88;49.79;102001.50;5099722;28;20056;-60
2022/07/27 08:05:22;;;;;;;1.27;0.90;;;;;;;18.89;49.75;102007.75;5090320;28;20074;-58
2022/07/27 08:07:51;;;;;;;2.42;0.88;;;;;;;18.88;50.14;102006.94;5097087;28;20139;-59
2022/07/27 08:10:21;;;;;;;3.00;1.05;;;;;;;18.88;50.06;102006.94;5101997;28;20044;-59
2022/07/27 08:12:52;;;;;;;3.65;1.10;;;;;;;18.88;50.12;102015.09;5099294;28;20147;-59
2022/07/27 08:15:21;;;;;;;1.95;1.33;;;;;;;18.89;49.99;102016.75;5104459;28;20062;-60
2022/07/27 08:18:03;;;;;;;3.22;0.95;;;;;;;18.88;49.96;102022.47;5098376;28;20077;-59
2022/07/27 08:20:33;;;;;;;2.00;1.00;;;;;;;18.89;49.99;102021.38;5104874;28;20066;-59
2022/07/27 08:23:01;;;;;;;2.42;0.90;;;;;;;18.87;49.84;102021.63;5097868;28;20048;-59
2022/07/27 08:25:30;;;;;;;5.63;1.45;;;;;;;18.87;49.73;102012.63;5101336;28;20052;-59
2022/07/27 08:27:57;;;;;;;1.60;1.08;;;;;;;18.87;49.68;102018.09;5095664;28;20055;-59
2022/07/27 08:30:26;;;;;;;3.05;1.10;;;;;;;18.85;49.67;102013.72;5088587;28;20919;-59
2022/07/27 08:32:59;;;;;;;2.33;1.00;;;;;;;18.86;49.63;102011.81;5093072;28;20485;-59
2022/07/27 08:35:29;;;;;;;2.15;0.82;;;;;;;18.85;49.74;102007.44;5104925;28;20040;-59
2022/07/27 08:37:58;;;;;;;4.82;1.27;;;;;;;18.85;49.65;102007.44;5094467;28;20044;-60
2022/07/27 08:40:26;;;;;;;6.10;1.10;;;;;;;18.84;49.66;102001.16;5101910;28;20074;-60
2022/07/27 08:43:15;;;;;;;2.03;1.05;;;;;;;18.86;49.38;102009.09;5093597;28;20059;-60
2022/07/27 08:45:56;;;;;;;3.63;0.98;;;;;;;18.87;49.55;102012.63;5092873;28;20101;-59
2022/07/27 08:48:24;;;;;;;5.57;1.10;;;;;;;18.85;49.41;102005.53;5097130;28;20072;-60
2022/07/27 08:50:52;;;;;;;3.90;1.60;;;;;;;18.70;49.52;101979.97;5092559;28;20076;-60
2022/07/27 08:53:23;;;;;;;2.63;1.25;;;;;;;18.74;49.35;101987.38;5098669;28;20051;-60
2022/07/27 08:55:51;;;;;;;2.38;1.00;;;;;;;18.88;49.66;102003.38;5097630;28;20070;-60
2022/07/27 08:58:19;;;;;;;3.50;1.27;;;;;;;18.88;49.30;102004.22;5087681;28;20048;-58
2022/07/27 09:00:49;;;;;;;2.22;0.90;;;;;;;18.90;49.23;102015.69;5096831;28;20089;-58
2022/07/27 09:03:20;;;;;;;3.35;1.33;;;;;;;18.88;49.40;102014.28;5092968;28;20058;-58
2022/07/27 09:05:50;;;;;;;3.08;1.17;;;;;;;18.90;48.99;102021.13;5100239;28;20044;-59
2022/07/27 09:08:22;;;;;;;3.20;1.10;;;;;;;18.81;49.08;101992.66;5086401;28;20441;-59
2022/07/27 09:10:54;;;;;;;1.25;0.90;;;;;;;18.92;49.13;102015.44;5094333;28;20059;-58
2022/07/27 09:13:24;;;;;;;5.07;1.20;;;;;;;18.87;49.12;102001.75;5098562;28;20052;-58
2022/07/27 09:15:54;;;;;;;3.63;1.45;;;;;;;18.93;49.06;102014.38;5097473;28;20124;-57
2022/07/27 09:18:42;;;;;;;3.47;1.30;;;;;;;18.93;49.19;102022.53;5101041;28;20054;-58
2022/07/27 09:21:13;;;;;;;2.75;1.33;;;;;;;18.94;49.58;102024.19;5102278;28;20044;-58
2022/07/27 09:23:42;;;;;;;4.82;1.30;;;;;;;18.92;49.38;102016.25;5099898;28;20056;-58
2022/07/27 09:26:14;;;;;;;3.40;1.10;;;;;;;18.93;49.61;102017.91;5104210;28;20049;-58
2022/07/27 09:28:59;;;;;;;1.60;1.15;;;;;;;18.94;49.70;102013.28;5092855;28;20056;-58
2022/07/27 09:31:30;;;;;;;3.67;1.30;;;;;;;18.95;49.63;102023.13;5098731;28;20413;-60
2022/07/27 09:34:00;;;;;;;3.95;1.33;;;;;;;18.95;49.86;102023.13;5092910;28;20052;-59
2022/07/27 09:36:30;;;;;;;2.95;1.50;;;;;;;18.95;49.83;102015.75;5103138;28;20102;-59
2022/07/27 09:39:01;;;;;;;2.60;1.05;;;;;;;18.81;49.88;102000.84;5096336;28;20041;-58
2022/07/27 09:41:42;;;;;;;5.55;1.55;;;;;;;18.96;49.74;102017.41;5097559;28;20048;-58
2022/07/27 09:44:13;;;;;;;6.65;1.50;;;;;;;18.98;49.72;102022.63;5100523;28;20077;-58
2022/07/27 09:46:59;;;;;;;2.28;1.20;;;;;;;18.84;49.37;102001.16;5092135;28;20124;-57
2022/07/27 09:49:30;;;;;;;3.58;1.20;;;;;;;18.96;48.63;102016.59;5094596;28;20052;-57
2022/07/27 09:51:59;;;;;;;4.35;1.25;;;;;;;18.95;48.06;102015.75;5089484;28;20048;-58
2022/07/27 09:54:42;;;;;;;8.48;1.60;;;;;;;18.96;47.40;102020.13;5088664;28;20052;-59
2022/07/27 09:57:12;;;;;;;3.88;1.33;;;;;;;18.96;47.19;102016.59;5096648;28;20048;-58
2022/07/27 09:59:40;;;;;;;6.15;1.30;;;;;;;18.96;47.50;102020.13;5095319;28;20073;-58
2022/07/27 10:02:08;;;;;;;2.85;1.02;;;;;;;18.82;47.35;101997.84;5099266;28;20064;-58
2022/07/27 10:04:36;;;;;;;5.53;1.30;;;;;;;18.95;47.32;102015.75;5104033;28;20093;-58
2022/07/27 10:07:04;;;;;;;6.68;1.30;;;;;;;18.96;47.45;102022.88;5092253;28;20048;-59
2022/07/27 10:09:39;;;;;;;3.85;0.98;;;;;;;18.97;47.38;102016.34;5095319;28;20054;-58
2022/07/27 10:12:08;;;;;;;3.05;1.20;;;;;;;18.99;47.09;102021.53;5094894;28;20048;-59
2022/07/27 10:14:37;;;;;;;2.88;1.08;;;;;;;18.99;47.13;102016.09;5093786;28;20052;-58
2022/07/27 10:17:06;;;;;;;5.78;1.65;;;;;;;19.00;47.29;102026.75;5103003;28;20120;-58
2022/07/27 10:19:44;;;;;;;4.00;1.13;;;;;;;19.02;47.15;102021.03;5094014;28;20577;-58
2022/07/27 10:22:11;;;;;;;3.78;1.70;;;;;;;19.03;47.29;102017.25;5111112;28;20052;-58
2022/07/27 10:24:39;;;;;;;2.40;1.40;;;;;;;19.03;47.16;102009.91;5096097;28;20472;-59
2022/07/27 10:27:26;;;;;;;2.25;1.15;;;;;;;19.05;47.68;102015.09;5092146;28;20599;-58
2022/07/27 10:29:57;;;;;;;4.00;1.65;;;;;;;19.07;47.60;102002.84;5095406;28;20139;-58
2022/07/27 10:32:26;;;;;;;3.40;1.23;;;;;;;19.07;47.75;101997.38;5097304;28;20530;-59
2022/07/27 10:34:53;;;;;;;3.90;1.20;;;;;;;19.09;47.69;102000.69;5095809;28;20059;-58
2022/07/27 10:37:26;;;;;;;3.53;1.70;;;;;;;18.96;47.74;101975.72;4738873;28;9999837;-59
2022/07/27 10:42:38;;;;;;;6.20;1.10;;;;;;;19.10;47.92;101998.78;5090044;28;20087;-59
2022/07/27 10:45:10;;;;;;;3.13;1.33;;;;;;;19.12;47.72;102000.19;5100613;28;20052;-58
2022/07/27 10:47:43;;;;;;;4.82;1.10;;;;;;;19.10;47.67;101999.63;5097778;28;20044;-59
2022/07/27 10:50:32;;;;;;;4.20;1.50;;;;;;;19.12;47.83;101991.19;5098763;28;20064;-59
2022/07/27 10:53:07;;;;;;;2.65;0.98;;;;;;;19.15;47.82;101996.97;5092761;28;20052;-59
2022/07/27 10:55:48;;;;;;;2.28;0.95;;;;;;;19.16;47.67;101984.16;5093011;28;20177;-59
2022/07/27 10:58:45;;;;;;;4.13;1.83;;;;;;;19.14;47.76;101973.50;5098062;28;20052;-59
2022/07/27 11:01:20;;;;;;;4.38;1.85;;;;;;;19.07;47.63;101955.69;5089380;28;20051;-58
2022/07/27 11:03:52;;;;;;;7.88;1.65;;;;;;;19.25;47.73;101984.56;5092648;28;20074;-59
2022/07/27 11:06:31;;;;;;;1.90;1.10;;;;;;;19.26;48.02;101984.28;5093421;28;20063;-59
2022/07/27 11:09:19;;;;;;;3.28;1.73;;;;;;;19.30;47.56;101985.44;5091212;28;20183;-59
2022/07/27 11:12:09;;;;;;;2.80;1.30;;;;;;;19.31;47.51;101983.53;5088360;28;20048;-59
2022/07/27 11:14:48;;;;;;;5.53;1.13;;;;;;;19.31;47.60;101983.53;5087753;28;20052;-59
2022/07/27 11:17:19;;;;;;;6.22;1.63;;;;;;;19.32;47.44;101993.38;5089967;28;20477;-58
2022/07/27 11:20:08;;;;;;;3.33;1.30;;;;;;;19.31;47.28;101984.38;5088374;28;20206;-59
2022/07/27 11:22:37;;;;;;;4.68;1.70;;;;;;;19.33;47.55;101987.66;5092734;28;20098;-59
2022/07/27 11:25:25;;;;;;;3.92;1.40;;;;;;;19.33;47.61;101984.13;5098679;28;20054;-58
2022/07/27 11:27:53;;;;;;;7.07;1.48;;;;;;;19.34;47.73;101978.41;5090081;28;20048;-58
2022/07/27 11:30:23;;;;;;;4.10;1.70;;;;;;;19.37;47.60;101982.53;5096111;28;20075;-58
2022/07/27 11:32:52;;;;;;;2.00;1.42;;;;;;;19.40;47.45;101979.31;5094543;28;20162;-58
2022/07/27 11:35:20;;;;;;;3.28;1.45;;;;;;;19.42;47.56;101974.41;5094999;28;20040;-58
2022/07/27 11:37:59;;;;;;;5.38;1.35;;;;;;;19.45;47.42;101973.91;5096666;28;20075;-59
2022/07/27 11:40:27;;;;;;;6.85;1.55;;;;;;;19.48;47.06;101967.94;5089627;28;20117;-58